Time;durP1;ratioP1;P1;durP2;ratioP2;P2;SDS_P1;SDS_P2;PMS_P1;PMS_P2;Temp;Humidity;BMP_temperature;BMP_pressure;BME280_temperature;BME280_humidity;BME280_pressure;Samples;Min_cycle;Max_cycle;Signal;HPM_P1;HPM_P2
2022/03/08 00:01:02;;;;;;;0.10;0.10;;;1.10;84.80;;;;;;6285127;22;20006;-67
2022/03/08 00:03:28;;;;;;;0.17;0.17;;;1.00;85.10;;;;;;6285247;22;20019;-67
2022/03/08 00:05:54;;;;;;;1.65;1.45;;;1.10;85.40;;;;;;6285044;22;20047;-66
2022/03/08 00:08:20;;;;;;;0.10;0.10;;;1.10;85.50;;;;;;6284995;22;20003;-66
2022/03/08 00:10:46;;;;;;;0.40;0.40;;;1.00;86.50;;;;;;6275229;22;20008;-65
2022/03/08 00:13:12;;;;;;;3.78;2.33;;;1.00;85.70;;;;;;6284917;22;20364;-66
2022/03/08 00:15:38;;;;;;;0.10;0.10;;;1.00;85.60;;;;;;6284909;22;20014;-67
2022/03/08 00:18:04;;;;;;;0.10;0.10;;;1.00;85.40;;;;;;6273214;22;20408;-67
2022/03/08 00:20:30;;;;;;;0.40;0.40;;;1.00;85.40;;;;;;6275063;22;20363;-66
2022/03/08 00:22:57;;;;;;;0.20;0.20;;;1.00;85.20;;;;;;6285064;22;20078;-66
2022/03/08 00:25:23;;;;;;;0.10;0.10;;;1.10;84.90;;;;;;6284927;22;20070;-66
2022/03/08 00:27:52;;;;;;;1.52;1.42;;;1.20;84.60;;;;;;6274742;22;20000;-66
2022/03/08 00:30:34;;;;;;;0.20;0.20;;;1.10;84.30;;;;;;6274815;22;20008;-67
2022/03/08 00:33:01;;;;;;;0.43;0.43;;;1.10;84.20;;;;;;6273915;22;20377;-66
2022/03/08 00:35:27;;;;;;;0.77;0.77;;;1.10;84.00;;;;;;6283197;22;20011;-65
2022/03/08 00:37:55;;;;;;;4.10;2.33;;;1.20;84.40;;;;;;6284478;22;20332;-67
2022/03/08 00:40:23;;;;;;;0.20;0.20;;;1.20;84.10;;;;;;6274484;22;20008;-66
2022/03/08 00:42:50;;;;;;;1.50;1.40;;;1.20;83.90;;;;;;6284801;22;20012;-67
2022/03/08 00:45:16;;;;;;;0.00;0.00;;;1.20;84.80;;;;;;6284582;22;20061;-67
2022/03/08 00:47:42;;;;;;;0.20;0.20;;;1.30;84.10;;;;;;6274764;22;20050;-65
2022/03/08 00:50:29;;;;;;;0.10;0.10;;;1.20;83.70;;;;;;6282874;22;20017;-65
2022/03/08 00:52:56;;;;;;;0.10;0.10;;;1.20;83.80;;;;;;6217286;23;20008;-66
2022/03/08 00:55:24;;;;;;;9.20;2.33;;;1.20;84.90;;;;;;6243564;23;20398;-66
2022/03/08 00:57:51;;;;;;;0.93;0.65;;;1.20;84.30;;;;;;6192033;23;20091;-66
2022/03/08 01:00:21;;;;;;;0.10;0.10;;;1.10;84.50;;;;;;6253746;23;20080;-66
2022/03/08 01:02:47;;;;;;;0.10;0.10;;;1.20;84.60;;;;;;6227340;23;20004;-65
2022/03/08 01:05:13;;;;;;;0.32;0.32;;;1.10;85.00;;;;;;6253843;23;20088;-67
2022/03/08 01:07:39;;;;;;;0.10;0.10;;;1.10;85.50;;;;;;6244059;23;20011;-66
2022/03/08 01:10:09;;;;;;;0.32;0.32;;;1.10;85.20;;;;;;6253703;23;20008;-66
2022/03/08 01:12:36;;;;;;;0.10;0.10;;;1.00;85.80;;;;;;6253965;23;20004;-66
2022/03/08 01:15:02;;;;;;;0.52;0.52;;;1.00;86.10;;;;;;6217395;23;20012;-66
2022/03/08 01:17:28;;;;;;;0.10;0.10;;;1.00;85.80;;;;;;6253822;23;20016;-68
2022/03/08 01:19:54;;;;;;;0.63;0.63;;;1.00;85.50;;;;;;6227034;23;20015;-67
2022/03/08 01:22:20;;;;;;;0.10;0.10;;;1.00;85.80;;;;;;6243910;23;20012;-66
2022/03/08 01:24:45;;;;;;;0.10;0.10;;;1.00;86.00;;;;;;6253872;23;20008;-66
2022/03/08 01:27:11;;;;;;;0.15;0.15;;;1.00;86.10;;;;;;6217116;23;20036;-67
2022/03/08 01:29:37;;;;;;;0.20;0.20;;;1.00;86.20;;;;;;6253875;23;20008;-66
2022/03/08 01:32:03;;;;;;;2.60;1.67;;;0.90;86.40;;;;;;6253641;23;20054;-66
2022/03/08 01:34:30;;;;;;;0.10;0.10;;;0.90;86.80;;;;;;6254007;23;20351;-66
2022/03/08 01:36:55;;;;;;;0.35;0.35;;;0.90;86.50;;;;;;6226930;23;20016;-67
2022/03/08 01:39:22;;;;;;;0.40;0.40;;;0.80;87.00;;;;;;6243775;23;20008;-67
2022/03/08 01:41:48;;;;;;;0.35;0.35;;;0.80;87.50;;;;;;6228284;23;20012;-66
2022/03/08 01:44:14;;;;;;;1.98;1.67;;;0.80;87.40;;;;;;6245208;23;20191;-67
2022/03/08 01:46:40;;;;;;;2.50;1.75;;;0.70;87.40;;;;;;6245855;23;20012;-66
2022/03/08 01:49:07;;;;;;;0.10;0.10;;;0.70;88.60;;;;;;6255609;23;20008;-67
2022/03/08 01:51:36;;;;;;;1.10;0.65;;;0.60;88.90;;;;;;6246544;22;20058;-66
2022/03/08 01:54:02;;;;;;;0.17;0.17;;;0.60;88.50;;;;;;6286459;22;20003;-67
2022/03/08 01:56:29;;;;;;;0.82;0.82;;;0.60;89.00;;;;;;6284676;22;20061;-67
2022/03/08 01:58:56;;;;;;;0.10;0.10;;;-0.20;90.90;;;;;;6286325;22;20102;-67
2022/03/08 02:01:22;;;;;;;0.10;0.10;;;-0.50;91.80;;;;;;6286237;22;20455;-67
2022/03/08 02:03:48;;;;;;;0.10;0.10;;;-0.50;91.80;;;;;;6276133;22;20468;-66
2022/03/08 02:06:14;;;;;;;0.15;0.15;;;-0.40;91.90;;;;;;6276025;22;20011;-66
2022/03/08 02:08:41;;;;;;;0.20;0.20;;;-0.40;92.30;;;;;;6275851;22;20018;-66
2022/03/08 02:11:07;;;;;;;0.20;0.20;;;-0.50;92.00;;;;;;6286148;22;20012;-66
2022/03/08 02:13:33;;;;;;;2.20;1.10;;;-0.50;92.00;;;;;;6274809;22;20008;-66
2022/03/08 02:15:59;;;;;;;2.58;2.38;;;-0.40;91.90;;;;;;6275796;22;20054;-66
2022/03/08 02:18:24;;;;;;;0.10;0.10;;;-0.40;92.30;;;;;;6285852;22;20022;-66
2022/03/08 02:20:50;;;;;;;0.40;0.40;;;-0.50;92.40;;;;;;6286220;22;20008;-67
2022/03/08 02:23:16;;;;;;;0.75;0.75;;;-0.50;92.60;;;;;;6285857;22;20012;-66
2022/03/08 02:25:42;;;;;;;0.10;0.10;;;-0.40;92.80;;;;;;6275787;22;20039;-65
2022/03/08 02:28:09;;;;;;;4.50;1.75;;;-0.30;92.00;;;;;;6285879;22;20026;-66
2022/03/08 02:30:34;;;;;;;1.20;1.15;;;-0.30;91.90;;;;;;6286060;22;20020;-66
2022/03/08 02:33:01;;;;;;;0.10;0.10;;;-0.40;93.10;;;;;;6276236;22;20045;-66
2022/03/08 02:35:29;;;;;;;0.17;0.17;;;-0.30;92.40;;;;;;6276052;22;20784;-66
2022/03/08 02:38:03;;;;;;;0.10;0.10;;;-0.30;92.00;;;;;;6285771;22;20007;-66
2022/03/08 02:40:37;;;;;;;10.32;2.42;;;-0.20;91.80;;;;;;6285842;22;20015;-66
2022/03/08 02:43:07;;;;;;;0.70;0.70;;;-0.20;91.70;;;;;;6286057;22;20134;-65
2022/03/08 02:45:33;;;;;;;0.35;0.35;;;-0.10;92.40;;;;;;6284627;22;20554;-66
2022/03/08 02:47:59;;;;;;;0.10;0.10;;;-0.10;92.20;;;;;;6284492;22;20375;-66
2022/03/08 02:50:25;;;;;;;0.10;0.10;;;0.00;92.30;;;;;;6274115;22;20007;-66
2022/03/08 02:52:55;;;;;;;0.20;0.20;;;-0.10;92.90;;;;;;6275334;22;20061;-65
2022/03/08 02:55:24;;;;;;;1.05;1.00;;;-0.10;92.80;;;;;;6275842;22;20388;-65
2022/03/08 02:57:52;;;;;;;1.05;0.90;;;-0.20;92.60;;;;;;6285776;22;20011;-65
2022/03/08 03:00:19;;;;;;;0.30;0.30;;;-0.10;92.20;;;;;;6275721;22;20007;-66
2022/03/08 03:02:46;;;;;;;0.10;0.10;;;-0.10;92.30;;;;;;6275551;22;20475;-66
2022/03/08 03:05:13;;;;;;;0.10;0.10;;;-0.10;92.30;;;;;;6285545;22;20003;-66
2022/03/08 03:07:40;;;;;;;0.13;0.13;;;-0.10;92.50;;;;;;6285753;22;20004;-66
2022/03/08 03:10:09;;;;;;;0.10;0.10;;;-0.20;92.70;;;;;;6285765;22;20015;-66
2022/03/08 03:12:35;;;;;;;1.23;1.13;;;-0.30;93.30;;;;;;6275635;22;19999;-66
2022/03/08 03:15:03;;;;;;;0.20;0.20;;;-0.40;93.60;;;;;;6285789;22;20019;-66
2022/03/08 03:17:29;;;;;;;0.10;0.10;;;-0.40;94.10;;;;;;6275396;22;20428;-67
2022/03/08 03:19:55;;;;;;;0.10;0.10;;;-0.50;94.00;;;;;;6275903;22;20110;-66
2022/03/08 03:22:21;;;;;;;0.50;0.50;;;-0.60;93.90;;;;;;6283955;22;20440;-66
2022/03/08 03:24:46;;;;;;;0.10;0.10;;;-0.70;94.10;;;;;;6285532;22;20000;-66
2022/03/08 03:27:12;;;;;;;0.10;0.10;;;-0.70;94.20;;;;;;6275442;22;20004;-66
2022/03/08 03:29:38;;;;;;;0.30;0.30;;;-0.70;94.30;;;;;;6285447;22;20328;-66
2022/03/08 03:32:05;;;;;;;0.10;0.10;;;-0.70;94.40;;;;;;6285657;22;20379;-66
2022/03/08 03:34:31;;;;;;;0.20;0.20;;;-0.70;94.70;;;;;;6285302;22;20325;-66
2022/03/08 03:36:57;;;;;;;1.00;1.00;;;-0.70;94.50;;;;;;6285455;22;20012;-65
2022/03/08 03:39:24;;;;;;;0.57;0.57;;;-0.70;94.20;;;;;;6285171;22;20489;-66
2022/03/08 03:41:49;;;;;;;0.17;0.17;;;-0.70;94.40;;;;;;6285428;22;20046;-65
2022/03/08 03:44:15;;;;;;;0.10;0.10;;;-0.80;95.30;;;;;;6274858;22;20003;-66
2022/03/08 03:46:41;;;;;;;1.25;0.85;;;-0.90;96.20;;;;;;6275437;22;20018;-67
2022/03/08 03:49:07;;;;;;;0.10;0.10;;;-0.90;96.70;;;;;;6285331;22;20429;-66
2022/03/08 03:51:32;;;;;;;3.40;1.48;;;-1.10;96.60;;;;;;6285177;22;20019;-66
2022/03/08 03:53:58;;;;;;;0.13;0.13;;;-1.00;96.10;;;;;;6273671;22;20000;-66
2022/03/08 03:56:24;;;;;;;0.10;0.10;;;-1.00;96.30;;;;;;6285124;22;20020;-66
2022/03/08 03:58:50;;;;;;;0.10;0.10;;;-1.00;96.10;;;;;;6285392;22;20011;-66
2022/03/08 04:01:16;;;;;;;3.40;2.60;;;-0.80;95.70;;;;;;6285008;22;20065;-66
2022/03/08 04:03:42;;;;;;;12.20;3.63;;;-0.60;94.90;;;;;;6285202;22;20489;-66
2022/03/08 04:06:08;;;;;;;0.68;0.68;;;-0.50;94.50;;;;;;6274983;22;20490;-66
2022/03/08 04:08:34;;;;;;;1.75;0.90;;;-0.50;94.50;;;;;;6284982;22;20004;-66
2022/03/08 04:11:00;;;;;;;0.15;0.15;;;-0.50;94.20;;;;;;6275213;22;20065;-67
2022/03/08 04:13:26;;;;;;;0.20;0.20;;;-0.60;94.40;;;;;;6285131;22;20008;-66
2022/03/08 04:15:52;;;;;;;0.98;0.98;;;-0.70;94.40;;;;;;6275016;22;19999;-65
2022/03/08 04:18:18;;;;;;;0.90;0.90;;;-0.70;94.40;;;;;;6285088;22;20404;-66
2022/03/08 04:20:45;;;;;;;0.30;0.30;;;-0.70;94.50;;;;;;6274796;22;20328;-65
2022/03/08 04:23:11;;;;;;;0.38;0.38;;;-0.70;94.30;;;;;;6285171;22;20026;-66
2022/03/08 04:25:37;;;;;;;0.10;0.10;;;-0.70;94.20;;;;;;6284746;22;20027;-66
2022/03/08 04:28:04;;;;;;;0.10;0.10;;;-0.70;94.30;;;;;;6285058;22;20015;-66
2022/03/08 04:30:31;;;;;;;1.20;1.00;;;-0.70;94.40;;;;;;6274791;22;20085;-66
2022/03/08 04:32:56;;;;;;;2.03;1.88;;;-0.70;94.20;;;;;;6275129;22;20008;-66
2022/03/08 04:35:22;;;;;;;0.22;0.22;;;-0.70;94.20;;;;;;6284783;22;20004;-66
2022/03/08 04:37:48;;;;;;;0.10;0.10;;;-0.70;94.50;;;;;;6284800;22;20033;-66
2022/03/08 04:40:15;;;;;;;0.57;0.57;;;-0.70;94.60;;;;;;6284658;22;20479;-67
2022/03/08 04:42:42;;;;;;;1.52;1.42;;;-0.70;94.90;;;;;;6284984;22;20015;-67
2022/03/08 04:45:10;;;;;;;0.10;0.10;;;-0.70;95.10;;;;;;6274934;22;20433;-67
2022/03/08 04:47:37;;;;;;;0.10;0.10;;;-0.80;95.10;;;;;;6274767;22;20031;-67
2022/03/08 04:50:09;;;;;;;0.10;0.10;;;-0.80;95.20;;;;;;6275034;22;20092;-67
2022/03/08 04:52:35;;;;;;;0.10;0.10;;;-0.90;95.30;;;;;;6284745;22;20023;-65
2022/03/08 04:55:01;;;;;;;0.20;0.20;;;-0.90;95.50;;;;;;6284666;22;20004;-66
2022/03/08 04:57:26;;;;;;;0.15;0.15;;;-1.00;95.70;;;;;;6273162;22;20014;-66
2022/03/08 04:59:52;;;;;;;0.10;0.10;;;-1.00;95.90;;;;;;6285034;22;20471;-66
2022/03/08 05:02:18;;;;;;;5.93;4.38;;;-1.00;96.20;;;;;;6284557;22;20375;-65
2022/03/08 05:04:44;;;;;;;0.28;0.28;;;-1.10;96.50;;;;;;6274560;22;20083;-65
2022/03/08 05:07:09;;;;;;;1.42;1.33;;;-1.20;96.70;;;;;;6274317;22;20015;-65
2022/03/08 05:09:35;;;;;;;0.10;0.10;;;-1.20;97.00;;;;;;6274818;22;20146;-67
2022/03/08 05:12:01;;;;;;;0.17;0.17;;;-1.20;97.20;;;;;;6283433;22;20036;-76
2022/03/08 05:14:27;;;;;;;0.20;0.20;;;-1.30;97.40;;;;;;6284610;22;20078;-71
2022/03/08 05:16:53;;;;;;;0.10;0.10;;;-1.30;97.60;;;;;;6285870;22;20388;-70
2022/03/08 05:19:19;;;;;;;0.35;0.35;;;-1.40;97.80;;;;;;6286655;22;20007;-72
2022/03/08 05:21:45;;;;;;;0.10;0.10;;;-1.40;98.00;;;;;;6286465;22;20008;-70
2022/03/08 05:24:11;;;;;;;0.10;0.10;;;-1.40;98.20;;;;;;6286808;22;20012;-70
2022/03/08 05:26:39;;;;;;;0.10;0.10;;;-1.50;98.50;;;;;;6286398;22;20016;-71
2022/03/08 05:29:07;;;;;;;1.58;1.48;;;-1.50;99.00;;;;;;6276676;22;20014;-72
2022/03/08 05:31:35;;;;;;;0.10;0.10;;;-1.50;98.80;;;;;;6286328;22;20061;-73
2022/03/08 05:34:04;;;;;;;0.10;0.10;;;-1.50;98.90;;;;;;6274692;22;20011;-71
2022/03/08 05:36:38;;;;;;;0.10;0.10;;;-1.50;99.20;;;;;;6286357;22;20007;-72
2022/03/08 05:39:04;;;;;;;2.65;1.98;;;-1.50;99.90;;;;;;6286663;22;20004;-71
2022/03/08 05:41:29;;;;;;;0.57;0.57;;;-1.50;99.90;;;;;;6286280;22;20091;-71
2022/03/08 05:43:55;;;;;;;0.47;0.47;;;-1.60;99.90;;;;;;6284545;22;20043;-71
2022/03/08 05:46:21;;;;;;;1.83;1.67;;;-1.20;99.90;;;;;;6286299;22;20004;-70
2022/03/08 05:48:47;;;;;;;1.83;1.73;;;-1.30;99.90;;;;;;6286438;22;20011;-70
2022/03/08 05:51:13;;;;;;;0.30;0.30;;;-1.30;99.90;;;;;;6286426;22;20022;-70
2022/03/08 05:53:38;;;;;;;0.15;0.15;;;-1.30;99.90;;;;;;6286263;22;20004;-71
2022/03/08 05:56:04;;;;;;;0.25;0.25;;;-1.40;99.90;;;;;;6286191;22;20018;-70
2022/03/08 05:58:30;;;;;;;0.93;0.93;;;-1.40;99.90;;;;;;6276264;22;20011;-71
2022/03/08 06:00:56;;;;;;;0.20;0.20;;;-1.40;99.90;;;;;;6276195;22;20007;-71
2022/03/08 06:03:21;;;;;;;4.38;2.50;;;-1.40;99.90;;;;;;6286160;22;20023;-69
2022/03/08 06:05:47;;;;;;;0.13;0.13;;;-1.40;99.90;;;;;;6286053;22;20444;-70
2022/03/08 06:08:14;;;;;;;0.73;0.73;;;-1.40;99.90;;;;;;6274650;22;20367;-71
2022/03/08 06:10:40;;;;;;;0.25;0.25;;;-1.30;99.90;;;;;;6274088;22;19999;-71
2022/03/08 06:13:06;;;;;;;0.43;0.43;;;-1.30;99.90;;;;;;6286189;22;20340;-71
2022/03/08 06:15:31;;;;;;;2.08;1.15;;;-1.30;99.90;;;;;;6285875;22;20011;-70
2022/03/08 06:17:57;;;;;;;0.20;0.20;;;-1.40;99.90;;;;;;6276177;22;20008;-71
2022/03/08 06:20:23;;;;;;;0.10;0.10;;;-1.40;99.90;;;;;;6285699;22;20003;-71
2022/03/08 06:22:48;;;;;;;0.43;0.43;;;-1.50;99.90;;;;;;6286187;22;20053;-75
2022/03/08 06:25:14;;;;;;;1.55;1.45;;;-1.50;99.90;;;;;;6276113;22;20035;-68
2022/03/08 06:27:43;;;;;;;0.40;0.40;;;-1.40;99.90;;;;;;6285542;22;20040;-69
2022/03/08 06:30:09;;;;;;;0.88;0.88;;;-1.40;99.90;;;;;;6285725;22;20038;-70
2022/03/08 06:32:35;;;;;;;5.93;2.58;;;-1.30;99.90;;;;;;6285478;22;20389;-70
2022/03/08 06:35:01;;;;;;;0.85;0.85;;;-1.20;99.90;;;;;;6285779;22;20035;-69
2022/03/08 06:37:27;;;;;;;2.00;1.33;;;-1.10;99.90;;;;;;6275513;22;20019;-70
2022/03/08 06:39:53;;;;;;;2.47;2.28;;;-1.00;99.90;;;;;;6276118;22;20007;-69
2022/03/08 06:42:19;;;;;;;0.10;0.10;;;-1.10;99.90;;;;;;6284068;22;20042;-69
2022/03/08 06:44:45;;;;;;;0.10;0.10;;;-1.00;99.80;;;;;;6284105;22;20050;-69
2022/03/08 06:47:11;;;;;;;0.10;0.10;;;-0.50;97.80;;;;;;6285619;22;20007;-69
2022/03/08 06:49:38;;;;;;;0.10;0.10;;;-0.30;97.30;;;;;;6275833;22;20012;-69
2022/03/08 06:52:09;;;;;;;0.35;0.35;;;-0.30;97.90;;;;;;6273398;22;20043;-70
2022/03/08 06:54:35;;;;;;;0.10;0.10;;;-0.40;98.30;;;;;;6276149;22;20016;-70
2022/03/08 06:57:03;;;;;;;1.55;1.45;;;-0.40;98.60;;;;;;6285279;22;20436;-70
2022/03/08 06:59:29;;;;;;;0.10;0.10;;;-0.40;98.80;;;;;;6275564;22;20010;-69
2022/03/08 07:01:56;;;;;;;0.32;0.32;;;-0.40;99.10;;;;;;6283730;22;20437;-70
2022/03/08 07:04:24;;;;;;;0.10;0.10;;;-0.30;99.40;;;;;;6273530;22;20531;-71
2022/03/08 07:06:50;;;;;;;0.80;0.80;;;-0.30;99.00;;;;;;6275576;22;20007;-70
2022/03/08 07:09:16;;;;;;;0.95;0.93;;;-0.20;99.10;;;;;;6285481;22;20336;-70
2022/03/08 07:11:43;;;;;;;0.73;0.73;;;-0.30;98.90;;;;;;6275533;22;20004;-70
2022/03/08 07:14:09;;;;;;;1.35;1.35;;;-0.20;98.70;;;;;;6285665;22;20023;-69
2022/03/08 07:16:34;;;;;;;1.67;1.58;;;-0.10;98.80;;;;;;6285061;22;20448;-69
2022/03/08 07:19:00;;;;;;;3.45;2.95;;;0.10;98.40;;;;;;6275693;22;20014;-69
2022/03/08 07:21:26;;;;;;;2.42;2.15;;;0.20;98.20;;;;;;6274805;22;20004;-70
2022/03/08 07:23:52;;;;;;;0.10;0.10;;;0.30;98.20;;;;;;6285842;22;20008;-70
2022/03/08 07:26:18;;;;;;;0.10;0.10;;;0.50;98.00;;;;;;6285189;22;20004;-70
2022/03/08 07:28:44;;;;;;;6.80;2.63;;;0.50;97.70;;;;;;6275342;22;20012;-70
2022/03/08 07:31:12;;;;;;;4.65;3.85;;;0.50;97.60;;;;;;6273321;22;20336;-69
2022/03/08 07:33:38;;;;;;;1.70;1.60;;;0.60;97.50;;;;;;6285217;22;20003;-70
2022/03/08 07:36:04;;;;;;;0.52;0.52;;;0.60;97.10;;;;;;6274969;22;20020;-69
2022/03/08 07:38:30;;;;;;;0.28;0.28;;;0.70;96.80;;;;;;6274304;22;20019;-69
2022/03/08 07:40:56;;;;;;;0.10;0.10;;;0.90;96.30;;;;;;6285237;22;20024;-68
2022/03/08 07:43:22;;;;;;;0.30;0.30;;;1.10;95.70;;;;;;6275344;22;20012;-68
2022/03/08 07:45:47;;;;;;;0.73;0.73;;;1.10;95.70;;;;;;6285076;22;20046;-69
2022/03/08 07:48:13;;;;;;;0.40;0.40;;;1.20;95.70;;;;;;6275331;22;20079;-69
2022/03/08 07:50:39;;;;;;;0.17;0.17;;;1.30;95.30;;;;;;6275001;22;20328;-68
2022/03/08 07:53:05;;;;;;;0.10;0.10;;;1.50;94.90;;;;;;6285159;22;20084;-69
2022/03/08 07:55:31;;;;;;;1.30;1.05;;;1.60;94.70;;;;;;6273582;22;20019;-70
2022/03/08 07:57:59;;;;;;;0.20;0.20;;;1.70;94.70;;;;;;6285047;22;20012;-69
2022/03/08 08:00:26;;;;;;;0.10;0.10;;;1.90;94.00;;;;;;6275152;22;20003;-69
2022/03/08 08:02:52;;;;;;;1.00;1.00;;;2.30;93.30;;;;;;6284861;22;20433;-69
2022/03/08 08:05:19;;;;;;;0.10;0.10;;;2.50;92.70;;;;;;6273736;22;20014;-68
2022/03/08 08:07:45;;;;;;;0.30;0.30;;;2.70;92.60;;;;;;6273340;22;20039;-69
2022/03/08 08:10:11;;;;;;;0.25;0.25;;;2.80;92.50;;;;;;6285165;22;20026;-69
2022/03/08 08:12:38;;;;;;;0.43;0.32;;;2.80;91.90;;;;;;6274749;22;20141;-69
2022/03/08 08:15:06;;;;;;;0.43;0.43;;;3.00;91.80;;;;;;6274887;22;20437;-69
2022/03/08 08:17:32;;;;;;;0.85;0.85;;;3.10;91.60;;;;;;6284838;22;20026;-69
2022/03/08 08:19:59;;;;;;;0.10;0.10;;;3.20;91.50;;;;;;6275030;22;20007;-69
2022/03/08 08:22:25;;;;;;;4.85;2.17;;;3.20;91.40;;;;;;6284920;22;20087;-70
2022/03/08 08:24:50;;;;;;;0.35;0.35;;;3.30;91.50;;;;;;6284922;22;20028;-69
2022/03/08 08:27:17;;;;;;;0.05;0.05;;;3.50;91.30;;;;;;6272981;22;20061;-69
2022/03/08 08:29:42;;;;;;;0.22;0.22;;;3.90;91.40;;;;;;6284610;22;20031;-69
2022/03/08 08:32:08;;;;;;;1.17;1.02;;;4.60;90.00;;;;;;6275128;22;20014;-69
2022/03/08 08:34:34;;;;;;;0.10;0.10;;;4.80;89.40;;;;;;6284551;22;20012;-70
2022/03/08 08:37:00;;;;;;;0.10;0.10;;;5.00;88.40;;;;;;6274863;22;20069;-69
2022/03/08 08:39:26;;;;;;;0.00;0.00;;;5.10;88.70;;;;;;6274625;22;20000;-69
2022/03/08 08:41:52;;;;;;;0.10;0.10;;;5.30;86.80;;;;;;6274783;22;20381;-69
2022/03/08 08:44:19;;;;;;;0.10;0.10;;;5.40;85.00;;;;;;6273212;22;20420;-68
2022/03/08 08:46:47;;;;;;;0.10;0.10;;;5.40;84.70;;;;;;6284745;22;20073;-70
2022/03/08 08:49:13;;;;;;;0.10;0.10;;;5.60;85.40;;;;;;6274913;22;20008;-69
2022/03/08 08:51:39;;;;;;;0.00;0.00;;;5.60;84.50;;;;;;6276598;22;20041;-68
2022/03/08 08:54:05;;;;;;;0.00;0.00;;;5.60;83.50;;;;;;6276731;22;20069;-69
2022/03/08 08:56:35;;;;;;;0.10;0.10;;;5.80;83.40;;;;;;6286514;22;20039;-68
2022/03/08 08:59:04;;;;;;;0.13;0.13;;;5.80;83.30;;;;;;6276847;22;20011;-69
2022/03/08 09:01:30;;;;;;;0.35;0.35;;;5.80;82.60;;;;;;6276835;22;20015;-69
2022/03/08 09:03:56;;;;;;;0.10;0.10;;;5.80;80.40;;;;;;6286938;22;20075;-70
2022/03/08 09:06:22;;;;;;;0.00;0.00;;;5.90;79.70;;;;;;6276818;22;20011;-70
2022/03/08 09:08:48;;;;;;;0.30;0.30;;;6.10;78.30;;;;;;6286500;22;20043;-69
2022/03/08 09:11:14;;;;;;;0.30;0.30;;;6.20;78.70;;;;;;6286576;22;20012;-69
2022/03/08 09:13:40;;;;;;;0.80;0.80;;;6.40;80.60;;;;;;6286477;22;20016;-69
2022/03/08 09:16:06;;;;;;;0.17;0.17;;;6.40;78.10;;;;;;6275078;22;20416;-69
2022/03/08 09:18:32;;;;;;;0.95;0.95;;;6.20;76.60;;;;;;6285123;22;20011;-70
2022/03/08 09:20:58;;;;;;;0.10;0.10;;;6.40;76.20;;;;;;6285209;22;20008;-69
2022/03/08 09:23:23;;;;;;;0.00;0.00;;;6.30;76.70;;;;;;6286772;22;20012;-69
2022/03/08 09:25:49;;;;;;;0.10;0.10;;;6.30;76.40;;;;;;6274954;22;20029;-69
2022/03/08 09:28:15;;;;;;;4.95;0.95;;;6.30;75.70;;;;;;6286597;22;20007;-69
2022/03/08 09:30:42;;;;;;;0.13;0.13;;;6.50;76.00;;;;;;6286494;22;20076;-69
2022/03/08 09:33:09;;;;;;;0.10;0.10;;;6.80;75.60;;;;;;6286657;22;20007;-69
2022/03/08 09:35:35;;;;;;;0.10;0.10;;;6.60;73.90;;;;;;6276443;22;20046;-70
2022/03/08 09:38:02;;;;;;;0.10;0.10;;;6.60;74.20;;;;;;6286912;22;20008;-70
2022/03/08 09:40:28;;;;;;;0.20;0.20;;;6.70;74.60;;;;;;6286430;22;20039;-69
2022/03/08 09:42:54;;;;;;;0.40;0.40;;;7.10;75.10;;;;;;6286224;22;20061;-69
2022/03/08 09:45:20;;;;;;;0.20;0.15;;;7.20;73.80;;;;;;6276524;22;20004;-68
2022/03/08 09:47:46;;;;;;;0.00;0.00;;;6.70;72.60;;;;;;6286393;22;20008;-69
2022/03/08 09:50:14;;;;;;;0.15;0.15;;;6.90;73.10;;;;;;6286419;22;20000;-68
2022/03/08 09:52:41;;;;;;;0.10;0.10;;;6.80;71.60;;;;;;6285896;22;20090;-69
2022/03/08 09:55:13;;;;;;;0.00;0.00;;;6.70;71.70;;;;;;6276276;22;20018;-69
2022/03/08 09:57:39;;;;;;;6.32;1.30;;;6.90;70.80;;;;;;6284589;22;20039;-69
2022/03/08 10:00:06;;;;;;;0.57;0.57;;;6.70;70.80;;;;;;6286292;22;20008;-70
2022/03/08 10:02:50;;;;;;;0.65;0.45;;;6.80;71.30;;;;;;6275921;22;20012;-69
2022/03/08 10:05:37;;;;;;;0.00;0.00;;;7.10;70.90;;;;;;6276234;22;20012;-69
2022/03/08 10:08:19;;;;;;;0.17;0.17;;;7.10;70.50;;;;;;6249096;22;20329;-69
2022/03/08 10:11:00;;;;;;;0.00;0.00;;;7.20;69.70;;;;;;6284745;22;20021;-69
2022/03/08 10:13:34;;;;;;;0.00;0.00;;;7.20;69.30;;;;;;6274858;22;20460;-69
2022/03/08 10:16:07;;;;;;;0.25;0.25;;;7.40;68.70;;;;;;6284686;22;20445;-70
2022/03/08 10:18:45;;;;;;;0.10;0.10;;;7.40;68.80;;;;;;6276119;22;20017;-69
2022/03/08 10:21:25;;;;;;;0.52;0.52;;;7.40;69.00;;;;;;6286348;22;20011;-69
2022/03/08 10:23:52;;;;;;;0.10;0.10;;;7.30;70.50;;;;;;6286089;22;20018;-69
2022/03/08 10:26:19;;;;;;;0.30;0.30;;;7.20;69.40;;;;;;6285900;22;20336;-69
2022/03/08 10:28:53;;;;;;;0.10;0.10;;;7.50;70.10;;;;;;6275822;22;20008;-69
2022/03/08 10:31:19;;;;;;;0.10;0.10;;;7.50;69.70;;;;;;6276248;22;20008;-69
2022/03/08 10:33:47;;;;;;;0.00;0.00;;;7.70;69.90;;;;;;6275965;22;20392;-69
2022/03/08 10:36:21;;;;;;;0.17;0.17;;;7.70;68.50;;;;;;6275867;22;20000;-69
2022/03/08 10:39:13;;;;;;;0.05;0.05;;;7.90;69.70;;;;;;6275590;22;20034;-69
2022/03/08 10:41:52;;;;;;;0.05;0.05;;;8.30;67.50;;;;;;6273564;22;20062;-70
2022/03/08 10:44:41;;;;;;;0.00;0.00;;;8.50;67.70;;;;;;6286020;22;20329;-69
2022/03/08 10:47:09;;;;;;;2.25;1.38;;;8.30;67.50;;;;;;6276062;22;20305;-69
2022/03/08 10:49:47;;;;;;;1.10;1.00;;;8.40;67.90;;;;;;6274174;22;20003;-70
2022/03/08 10:52:13;;;;;;;0.00;0.00;;;8.20;68.50;;;;;;6284127;22;20014;-69
2022/03/08 10:54:39;;;;;;;0.00;0.00;;;8.40;68.50;;;;;;6285670;22;20015;-69
2022/03/08 10:57:05;;;;;;;0.03;0.03;;;8.60;67.40;;;;;;6284166;22;20011;-69
2022/03/08 10:59:31;;;;;;;0.20;0.20;;;8.70;68.40;;;;;;6275904;22;20034;-69
2022/03/08 11:01:57;;;;;;;0.32;0.32;;;8.70;67.50;;;;;;6284004;22;20086;-69
2022/03/08 11:04:24;;;;;;;0.15;0.15;;;8.70;67.00;;;;;;6274224;22;20417;-69
2022/03/08 11:06:52;;;;;;;0.00;0.00;;;8.90;67.00;;;;;;6275545;22;20038;-70
2022/03/08 11:09:20;;;;;;;0.10;0.10;;;8.80;67.30;;;;;;6285050;22;20058;-70
2022/03/08 11:11:46;;;;;;;0.10;0.10;;;8.70;66.60;;;;;;6283613;22;20004;-69
2022/03/08 11:14:13;;;;;;;0.20;0.20;;;9.20;67.40;;;;;;6284050;22;20003;-68
2022/03/08 11:16:40;;;;;;;0.10;0.10;;;9.00;66.70;;;;;;6274680;22;20328;-69
2022/03/08 11:19:06;;;;;;;0.00;0.00;;;9.40;65.60;;;;;;6285267;22;20074;-69
2022/03/08 11:21:34;;;;;;;0.17;0.17;;;9.60;64.90;;;;;;6285062;22;20340;-68
2022/03/08 11:24:03;;;;;;;0.00;0.00;;;9.50;64.50;;;;;;6284851;22;20018;-68
2022/03/08 11:26:29;;;;;;;0.00;0.00;;;9.30;64.60;;;;;;6283400;22;20018;-68
2022/03/08 11:28:56;;;;;;;0.10;0.10;;;9.70;64.00;;;;;;6283479;22;20012;-68
2022/03/08 11:31:31;;;;;;;0.55;0.55;;;10.10;64.30;;;;;;6285299;22;20364;-69
2022/03/08 11:34:26;;;;;;;0.10;0.10;;;10.10;63.00;;;;;;6285194;22;20450;-69
2022/03/08 11:37:01;;;;;;;0.70;0.70;;;10.40;63.80;;;;;;6284935;22;20004;-69
2022/03/08 11:39:28;;;;;;;0.03;0.03;;;10.80;62.50;;;;;;6275254;22;20095;-69
2022/03/08 11:42:18;;;;;;;0.00;0.00;;;11.20;62.20;;;;;;6273103;22;20099;-69
2022/03/08 11:45:00;;;;;;;0.00;0.00;;;11.30;59.10;;;;;;6257440;22;20012;-69
2022/03/08 11:47:44;;;;;;;1.90;1.75;;;10.90;59.10;;;;;;6285097;22;20026;-70
2022/03/08 11:50:23;;;;;;;0.45;0.45;;;10.80;59.80;;;;;;6285284;22;20464;-69
2022/03/08 11:53:04;;;;;;;0.00;0.00;;;11.40;59.80;;;;;;6275139;22;20019;-70
2022/03/08 11:55:30;;;;;;;0.10;0.10;;;12.40;57.70;;;;;;6247729;22;20441;-69
2022/03/08 11:58:18;;;;;;;2.75;0.90;;;11.90;57.30;;;;;;6274721;22;20012;-70
2022/03/08 12:00:48;;;;;;;0.13;0.13;;;11.60;59.60;;;;;;6284889;22;20011;-69
2022/03/08 12:03:22;;;;;;;0.10;0.10;;;11.80;58.10;;;;;;6275411;22;20081;-68
2022/03/08 12:05:58;;;;;;;0.00;0.00;;;11.30;57.10;;;;;;6284776;22;20008;-68
2022/03/08 12:08:30;;;;;;;0.22;0.20;;;11.80;57.80;;;;;;6273261;22;20004;-68
2022/03/08 12:10:58;;;;;;;0.00;0.00;;;11.80;56.60;;;;;;6274752;22;20098;-68
2022/03/08 12:13:34;;;;;;;0.38;0.32;;;11.80;56.80;;;;;;6284620;22;20041;-68
2022/03/08 12:16:09;;;;;;;0.10;0.10;;;11.20;57.00;;;;;;6284325;22;20008;-68
2022/03/08 12:18:40;;;;;;;0.00;0.00;;;12.00;56.00;;;;;;6274741;22;20023;-68
2022/03/08 12:21:15;;;;;;;0.00;0.00;;;11.90;56.10;;;;;;6283466;22;20000;-68
2022/03/08 12:23:48;;;;;;;0.70;0.63;;;11.90;56.30;;;;;;6284749;22;20022;-69
2022/03/08 12:26:28;;;;;;;1.67;1.55;;;11.70;55.50;;;;;;6274865;22;20016;-68
2022/03/08 12:29:16;;;;;;;0.85;0.85;;;12.40;55.40;;;;;;6284314;22;20008;-68
2022/03/08 12:32:05;;;;;;;0.00;0.00;;;12.30;54.00;;;;;;6274473;22;20046;-68
2022/03/08 12:34:39;;;;;;;0.20;0.20;;;12.20;55.30;;;;;;6258439;22;20065;-68
2022/03/08 12:37:18;;;;;;;0.10;0.10;;;12.60;54.50;;;;;;6274082;22;20401;-68
2022/03/08 12:40:04;;;;;;;0.00;0.00;;;12.80;54.00;;;;;;6284718;22;20004;-68
2022/03/08 12:42:52;;;;;;;0.00;0.00;;;12.80;53.40;;;;;;6274652;22;20011;-68
2022/03/08 12:45:30;;;;;;;0.10;0.10;;;12.50;54.80;;;;;;6274974;22;20016;-68
2022/03/08 12:48:04;;;;;;;0.00;0.00;;;12.60;54.30;;;;;;6284461;22;20035;-68
2022/03/08 12:50:39;;;;;;;0.10;0.10;;;12.60;54.00;;;;;;6274463;22;20016;-68
2022/03/08 12:53:15;;;;;;;0.55;0.55;;;12.50;53.30;;;;;;6284447;22;20007;-68
2022/03/08 12:55:46;;;;;;;2.80;0.95;;;12.20;53.20;;;;;;6283079;22;20003;-68